sensor_id;sensor_type;location;lat;lon;timestamp;temperature;humidity
42905;DHT22;28550;51.228;4.528;2023-06-04T00:00:05;13.30;99.90
42905;DHT22;28550;51.228;4.528;2023-06-04T00:02:32;13.30;99.90
42905;DHT22;28550;51.228;4.528;2023-06-04T00:04:58;13.20;66.00
42905;DHT22;28550;51.228;4.528;2023-06-04T00:07:23;13.20;1.00
42905;DHT22;28550;51.228;4.528;2023-06-04T00:09:49;13.20;1.00
42905;DHT22;28550;51.228;4.528;2023-06-04T00:12:15;13.20;1.00
42905;DHT22;28550;51.228;4.528;2023-06-04T00:14:41;13.20;26.10
42905;DHT22;28550;51.228;4.528;2023-06-04T00:17:08;13.20;99.90
42905;DHT22;28550;51.228;4.528;2023-06-04T00:19:34;13.20;1.00
42905;DHT22;28550;51.228;4.528;2023-06-04T00:22:00;13.20;1.00
42905;DHT22;28550;51.228;4.528;2023-06-04T00:24:26;13.20;1.00
42905;DHT22;28550;51.228;4.528;2023-06-04T00:27:03;13.20;99.90
42905;DHT22;28550;51.228;4.528;2023-06-04T00:29:32;13.20;99.90
42905;DHT22;28550;51.228;4.528;2023-06-04T00:31:58;13.20;1.00
42905;DHT22;28550;51.228;4.528;2023-06-04T00:34:24;13.10;1.00
42905;DHT22;28550;51.228;4.528;2023-06-04T00:37:00;13.00;99.90
42905;DHT22;28550;51.228;4.528;2023-06-04T00:39:27;13.00;75.70
42905;DHT22;28550;51.228;4.528;2023-06-04T00:41:52;13.00;1.00
42905;DHT22;28550;51.228;4.528;2023-06-04T00:44:19;13.00;1.00
42905;DHT22;28550;51.228;4.528;2023-06-04T00:46:47;13.00;99.50
42905;DHT22;28550;51.228;4.528;2023-06-04T00:49:14;13.00;99.90
42905;DHT22;28550;51.228;4.528;2023-06-04T00:51:43;13.00;99.90
42905;DHT22;28550;51.228;4.528;2023-06-04T00:54:09;13.00;99.90
42905;DHT22;28550;51.228;4.528;2023-06-04T00:56:36;13.00;99.90
42905;DHT22;28550;51.228;4.528;2023-06-04T00:59:11;13.10;12.40
42905;DHT22;28550;51.228;4.528;2023-06-04T01:01:45;13.00;99.90
42905;DHT22;28550;51.228;4.528;2023-06-04T01:07:18;12.90;1.00
42905;DHT22;28550;51.228;4.528;2023-06-04T01:09:57;13.00;1.00
42905;DHT22;28550;51.228;4.528;2023-06-04T01:12:32;13.00;1.00
42905;DHT22;28550;51.228;4.528;2023-06-04T01:14:57;13.00;1.00
42905;DHT22;28550;51.228;4.528;2023-06-04T01:22:35;13.00;1.00
42905;DHT22;28550;51.228;4.528;2023-06-04T01:25:14;13.00;1.00
42905;DHT22;28550;51.228;4.528;2023-06-04T01:27:55;13.00;1.00
42905;DHT22;28550;51.228;4.528;2023-06-04T01:30:36;13.00;1.00
42905;DHT22;28550;51.228;4.528;2023-06-04T01:33:09;13.00;63.50
42905;DHT22;28550;51.228;4.528;2023-06-04T01:35:55;13.00;1.00
42905;DHT22;28550;51.228;4.528;2023-06-04T01:38:21;13.00;99.90
42905;DHT22;28550;51.228;4.528;2023-06-04T01:40:59;13.00;99.90
42905;DHT22;28550;51.228;4.528;2023-06-04T01:43:36;13.00;99.90
42905;DHT22;28550;51.228;4.528;2023-06-04T01:46:09;13.00;1.00
42905;DHT22;28550;51.228;4.528;2023-06-04T01:49:02;12.90;99.90
42905;DHT22;28550;51.228;4.528;2023-06-04T01:51:35;12.90;99.90
42905;DHT22;28550;51.228;4.528;2023-06-04T01:54:02;12.80;1.00
42905;DHT22;28550;51.228;4.528;2023-06-04T01:56:27;12.70;1.00
42905;DHT22;28550;51.228;4.528;2023-06-04T01:58:54;12.70;3.00
42905;DHT22;28550;51.228;4.528;2023-06-04T02:01:20;12.70;1.00
42905;DHT22;28550;51.228;4.528;2023-06-04T02:03:46;12.80;1.00
42905;DHT22;28550;51.228;4.528;2023-06-04T02:06:12;12.70;78.60
42905;DHT22;28550;51.228;4.528;2023-06-04T02:08:38;12.70;93.40
42905;DHT22;28550;51.228;4.528;2023-06-04T02:11:05;12.70;99.90
42905;DHT22;28550;51.228;4.528;2023-06-04T02:13:31;12.60;45.60
42905;DHT22;28550;51.228;4.528;2023-06-04T02:16:05;12.70;11.70
42905;DHT22;28550;51.228;4.528;2023-06-04T02:18:31;12.50;99.90
42905;DHT22;28550;51.228;4.528;2023-06-04T02:20:56;12.50;99.90
42905;DHT22;28550;51.228;4.528;2023-06-04T02:23:22;12.50;1.00
42905;DHT22;28550;51.228;4.528;2023-06-04T02:25:48;12.40;1.00
42905;DHT22;28550;51.228;4.528;2023-06-04T02:28:18;12.50;99.90
42905;DHT22;28550;51.228;4.528;2023-06-04T02:30:44;12.40;1.00
42905;DHT22;28550;51.228;4.528;2023-06-04T02:33:11;12.40;1.00
42905;DHT22;28550;51.228;4.528;2023-06-04T02:35:55;12.30;93.10
42905;DHT22;28550;51.228;4.528;2023-06-04T02:38:21;12.20;12.60
42905;DHT22;28550;51.228;4.528;2023-06-04T02:40:46;12.30;99.90
42905;DHT22;28550;51.228;4.528;2023-06-04T02:43:21;12.20;99.90
42905;DHT22;28550;51.228;4.528;2023-06-04T02:46:00;12.40;1.00
42905;DHT22;28550;51.228;4.528;2023-06-04T02:48:38;12.40;1.00
42905;DHT22;28550;51.228;4.528;2023-06-04T02:51:04;12.30;99.90
42905;DHT22;28550;51.228;4.528;2023-06-04T02:53:30;12.30;72.10
42905;DHT22;28550;51.228;4.528;2023-06-04T02:56:08;12.20;29.40
42905;DHT22;28550;51.228;4.528;2023-06-04T02:58:37;12.10;99.90
42905;DHT22;28550;51.228;4.528;2023-06-04T03:01:05;12.10;99.90
42905;DHT22;28550;51.228;4.528;2023-06-04T03:03:32;12.10;99.90
42905;DHT22;28550;51.228;4.528;2023-06-04T03:05:58;12.10;99.90
42905;DHT22;28550;51.228;4.528;2023-06-04T03:08:25;12.10;99.90
42905;DHT22;28550;51.228;4.528;2023-06-04T03:10:51;12.00;99.90
42905;DHT22;28550;51.228;4.528;2023-06-04T03:13:19;12.10;99.90
42905;DHT22;28550;51.228;4.528;2023-06-04T03:15:45;12.00;99.90
42905;DHT22;28550;51.228;4.528;2023-06-04T03:18:22;12.00;99.90
42905;DHT22;28550;51.228;4.528;2023-06-04T03:20:56;12.00;99.90
42905;DHT22;28550;51.228;4.528;2023-06-04T03:23:22;12.00;99.90
42905;DHT22;28550;51.228;4.528;2023-06-04T03:25:49;11.90;1.00
42905;DHT22;28550;51.228;4.528;2023-06-04T03:28:24;11.90;1.00
42905;DHT22;28550;51.228;4.528;2023-06-04T03:30:50;11.90;1.00
42905;DHT22;28550;51.228;4.528;2023-06-04T03:33:16;11.90;1.00
42905;DHT22;28550;51.228;4.528;2023-06-04T03:35:42;11.80;1.00
42905;DHT22;28550;51.228;4.528;2023-06-04T03:38:13;11.80;1.00
42905;DHT22;28550;51.228;4.528;2023-06-04T03:40:45;11.80;1.00
42905;DHT22;28550;51.228;4.528;2023-06-04T03:43:11;11.90;99.90
42905;DHT22;28550;51.228;4.528;2023-06-04T03:45:43;11.90;1.00
42905;DHT22;28550;51.228;4.528;2023-06-04T03:48:40;11.80;1.00
42905;DHT22;28550;51.228;4.528;2023-06-04T03:51:18;11.90;1.00
42905;DHT22;28550;51.228;4.528;2023-06-04T03:53:45;11.80;1.00
42905;DHT22;28550;51.228;4.528;2023-06-04T03:56:10;11.80;1.00
42905;DHT22;28550;51.228;4.528;2023-06-04T03:58:48;11.80;1.00
42905;DHT22;28550;51.228;4.528;2023-06-04T04:01:21;11.80;1.00
42905;DHT22;28550;51.228;4.528;2023-06-04T04:03:49;11.80;1.00
42905;DHT22;28550;51.228;4.528;2023-06-04T04:06:15;11.70;1.00
42905;DHT22;28550;51.228;4.528;2023-06-04T04:08:55;11.80;1.00
42905;DHT22;28550;51.228;4.528;2023-06-04T04:14:24;11.80;1.00
42905;DHT22;28550;51.228;4.528;2023-06-04T04:16:50;11.90;1.00
42905;DHT22;28550;51.228;4.528;2023-06-04T04:19:16;11.90;1.00
42905;DHT22;28550;51.228;4.528;2023-06-04T04:22:02;12.00;1.00
42905;DHT22;28550;51.228;4.528;2023-06-04T04:24:28;11.90;1.00
42905;DHT22;28550;51.228;4.528;2023-06-04T04:26:54;11.90;1.00
42905;DHT22;28550;51.228;4.528;2023-06-04T04:29:23;11.90;1.00
42905;DHT22;28550;51.228;4.528;2023-06-04T04:31:53;11.90;1.00
42905;DHT22;28550;51.228;4.528;2023-06-04T04:34:34;12.00;1.00
42905;DHT22;28550;51.228;4.528;2023-06-04T04:37:00;12.00;1.00
42905;DHT22;28550;51.228;4.528;2023-06-04T04:39:28;12.00;1.00
42905;DHT22;28550;51.228;4.528;2023-06-04T04:41:54;12.10;1.00
42905;DHT22;28550;51.228;4.528;2023-06-04T04:44:23;12.10;1.00
42905;DHT22;28550;51.228;4.528;2023-06-04T04:46:57;12.20;99.90
42905;DHT22;28550;51.228;4.528;2023-06-04T04:49:25;12.10;1.00
42905;DHT22;28550;51.228;4.528;2023-06-04T04:51:51;12.20;99.90
42905;DHT22;28550;51.228;4.528;2023-06-04T04:54:20;12.30;99.90
42905;DHT22;28550;51.228;4.528;2023-06-04T04:56:45;12.30;99.90
42905;DHT22;28550;51.228;4.528;2023-06-04T04:59:20;12.40;99.90
42905;DHT22;28550;51.228;4.528;2023-06-04T05:01:46;12.40;99.90
42905;DHT22;28550;51.228;4.528;2023-06-04T05:04:20;12.40;99.90
42905;DHT22;28550;51.228;4.528;2023-06-04T05:07:00;12.50;99.90
42905;DHT22;28550;51.228;4.528;2023-06-04T05:09:26;12.60;99.90
42905;DHT22;28550;51.228;4.528;2023-06-04T05:11:56;12.60;99.90
42905;DHT22;28550;51.228;4.528;2023-06-04T05:14:21;12.80;44.30
42905;DHT22;28550;51.228;4.528;2023-06-04T05:16:47;12.80;15.40
42905;DHT22;28550;51.228;4.528;2023-06-04T05:19:18;12.80;1.00
42905;DHT22;28550;51.228;4.528;2023-06-04T05:21:44;13.00;1.00
42905;DHT22;28550;51.228;4.528;2023-06-04T05:24:26;13.00;1.00
42905;DHT22;28550;51.228;4.528;2023-06-04T05:26:52;13.10;1.00
42905;DHT22;28550;51.228;4.528;2023-06-04T05:29:17;13.20;1.00
42905;DHT22;28550;51.228;4.528;2023-06-04T05:31:43;13.20;99.90
42905;DHT22;28550;51.228;4.528;2023-06-04T05:34:09;13.40;99.90
42905;DHT22;28550;51.228;4.528;2023-06-04T05:36:39;13.40;99.90
42905;DHT22;28550;51.228;4.528;2023-06-04T05:39:05;13.70;99.90
42905;DHT22;28550;51.228;4.528;2023-06-04T05:42:01;13.90;99.90
42905;DHT22;28550;51.228;4.528;2023-06-04T05:44:29;14.00;99.90
42905;DHT22;28550;51.228;4.528;2023-06-04T05:46:55;14.00;1.00
42905;DHT22;28550;51.228;4.528;2023-06-04T05:49:20;14.00;30.50
42905;DHT22;28550;51.228;4.528;2023-06-04T05:51:49;14.10;1.00
42905;DHT22;28550;51.228;4.528;2023-06-04T05:54:15;14.30;99.90
42905;DHT22;28550;51.228;4.528;2023-06-04T05:56:41;14.40;23.30
42905;DHT22;28550;51.228;4.528;2023-06-04T05:59:06;14.50;1.00
42905;DHT22;28550;51.228;4.528;2023-06-04T06:01:32;14.50;1.00
42905;DHT22;28550;51.228;4.528;2023-06-04T06:03:58;14.70;1.00
42905;DHT22;28550;51.228;4.528;2023-06-04T06:06:23;14.90;99.90
42905;DHT22;28550;51.228;4.528;2023-06-04T06:08:49;14.90;1.00
42905;DHT22;28550;51.228;4.528;2023-06-04T06:11:16;15.00;1.00
42905;DHT22;28550;51.228;4.528;2023-06-04T06:13:41;15.10;99.90
42905;DHT22;28550;51.228;4.528;2023-06-04T06:16:09;15.10;99.90
42905;DHT22;28550;51.228;4.528;2023-06-04T06:18:35;15.30;99.90
42905;DHT22;28550;51.228;4.528;2023-06-04T06:21:01;15.50;1.00
42905;DHT22;28550;51.228;4.528;2023-06-04T06:23:26;15.60;1.00
42905;DHT22;28550;51.228;4.528;2023-06-04T06:25:52;15.70;99.90
42905;DHT22;28550;51.228;4.528;2023-06-04T06:28:18;15.90;99.90
42905;DHT22;28550;51.228;4.528;2023-06-04T06:30:44;16.00;1.00
42905;DHT22;28550;51.228;4.528;2023-06-04T06:33:10;16.20;1.00
42905;DHT22;28550;51.228;4.528;2023-06-04T06:35:36;16.40;99.90
42905;DHT22;28550;51.228;4.528;2023-06-04T06:38:28;16.70;99.90
42905;DHT22;28550;51.228;4.528;2023-06-04T06:41:11;16.70;1.00
42905;DHT22;28550;51.228;4.528;2023-06-04T06:43:46;16.80;1.00
42905;DHT22;28550;51.228;4.528;2023-06-04T06:46:12;17.00;1.00
42905;DHT22;28550;51.228;4.528;2023-06-04T06:48:38;17.30;1.00
42905;DHT22;28550;51.228;4.528;2023-06-04T06:51:03;17.40;99.90
42905;DHT22;28550;51.228;4.528;2023-06-04T06:53:29;17.60;99.90
42905;DHT22;28550;51.228;4.528;2023-06-04T06:55:55;17.80;99.90
42905;DHT22;28550;51.228;4.528;2023-06-04T06:58:36;18.30;1.00
42905;DHT22;28550;51.228;4.528;2023-06-04T07:01:03;18.90;1.00
42905;DHT22;28550;51.228;4.528;2023-06-04T07:03:29;18.90;99.90
42905;DHT22;28550;51.228;4.528;2023-06-04T07:05:57;18.80;1.00
42905;DHT22;28550;51.228;4.528;2023-06-04T07:08:22;18.90;1.00
42905;DHT22;28550;51.228;4.528;2023-06-04T07:10:58;19.30;1.00
42905;DHT22;28550;51.228;4.528;2023-06-04T07:13:24;19.90;1.00
42905;DHT22;28550;51.228;4.528;2023-06-04T07:15:59;20.90;99.90
42905;DHT22;28550;51.228;4.528;2023-06-04T07:18:25;21.60;1.00
42905;DHT22;28550;51.228;4.528;2023-06-04T07:20:51;22.00;1.00
42905;DHT22;28550;51.228;4.528;2023-06-04T07:23:18;22.50;1.00
42905;DHT22;28550;51.228;4.528;2023-06-04T07:25:44;22.50;1.00
42905;DHT22;28550;51.228;4.528;2023-06-04T07:28:10;23.20;99.90
42905;DHT22;28550;51.228;4.528;2023-06-04T07:30:45;23.70;99.90
42905;DHT22;28550;51.228;4.528;2023-06-04T07:33:11;24.30;99.90
42905;DHT22;28550;51.228;4.528;2023-06-04T07:35:37;24.70;99.90
42905;DHT22;28550;51.228;4.528;2023-06-04T07:38:03;24.80;99.90
42905;DHT22;28550;51.228;4.528;2023-06-04T07:40:28;24.60;99.90
42905;DHT22;28550;51.228;4.528;2023-06-04T07:43:15;24.40;99.90
42905;DHT22;28550;51.228;4.528;2023-06-04T07:45:41;24.90;99.90
42905;DHT22;28550;51.228;4.528;2023-06-04T07:48:09;25.20;99.90
42905;DHT22;28550;51.228;4.528;2023-06-04T07:50:36;25.50;99.90
42905;DHT22;28550;51.228;4.528;2023-06-04T07:53:04;25.80;99.90
42905;DHT22;28550;51.228;4.528;2023-06-04T07:55:30;26.30;99.90
42905;DHT22;28550;51.228;4.528;2023-06-04T07:57:58;25.60;99.90
42905;DHT22;28550;51.228;4.528;2023-06-04T08:00:29;26.00;99.90
42905;DHT22;28550;51.228;4.528;2023-06-04T08:02:57;25.40;99.90
42905;DHT22;28550;51.228;4.528;2023-06-04T08:05:22;25.70;99.90
42905;DHT22;28550;51.228;4.528;2023-06-04T08:07:49;25.30;99.90
42905;DHT22;28550;51.228;4.528;2023-06-04T08:10:22;25.60;99.90
42905;DHT22;28550;51.228;4.528;2023-06-04T08:13:20;26.30;99.90
42905;DHT22;28550;51.228;4.528;2023-06-04T08:15:46;27.00;99.90
42905;DHT22;28550;51.228;4.528;2023-06-04T08:18:12;27.10;99.90
42905;DHT22;28550;51.228;4.528;2023-06-04T08:20:37;26.80;99.90
42905;DHT22;28550;51.228;4.528;2023-06-04T08:23:03;26.90;99.90
42905;DHT22;28550;51.228;4.528;2023-06-04T08:25:30;27.30;99.90
42905;DHT22;28550;51.228;4.528;2023-06-04T08:28:01;27.10;99.90
42905;DHT22;28550;51.228;4.528;2023-06-04T08:30:31;28.00;99.90
42905;DHT22;28550;51.228;4.528;2023-06-04T08:32:57;28.30;99.90
42905;DHT22;28550;51.228;4.528;2023-06-04T08:35:23;27.90;99.90
42905;DHT22;28550;51.228;4.528;2023-06-04T08:37:48;27.90;99.90
42905;DHT22;28550;51.228;4.528;2023-06-04T08:40:14;27.00;99.90
42905;DHT22;28550;51.228;4.528;2023-06-04T08:42:42;27.10;99.90
42905;DHT22;28550;51.228;4.528;2023-06-04T08:45:11;27.30;99.90
42905;DHT22;28550;51.228;4.528;2023-06-04T08:47:43;27.30;99.90
42905;DHT22;28550;51.228;4.528;2023-06-04T08:50:12;27.50;99.90
42905;DHT22;28550;51.228;4.528;2023-06-04T08:52:42;28.00;99.90
42905;DHT22;28550;51.228;4.528;2023-06-04T08:55:14;28.50;99.90
42905;DHT22;28550;51.228;4.528;2023-06-04T09:00:31;28.10;99.90
42905;DHT22;28550;51.228;4.528;2023-06-04T09:02:57;28.70;99.90
42905;DHT22;28550;51.228;4.528;2023-06-04T09:05:24;27.80;99.90
42905;DHT22;28550;51.228;4.528;2023-06-04T09:07:55;27.80;99.90
42905;DHT22;28550;51.228;4.528;2023-06-04T09:10:36;28.30;99.90
42905;DHT22;28550;51.228;4.528;2023-06-04T09:13:03;27.70;99.90
42905;DHT22;28550;51.228;4.528;2023-06-04T09:15:41;28.70;99.90
42905;DHT22;28550;51.228;4.528;2023-06-04T09:18:07;28.90;99.90
42905;DHT22;28550;51.228;4.528;2023-06-04T09:20:32;29.70;99.90
42905;DHT22;28550;51.228;4.528;2023-06-04T09:23:01;30.00;99.90
42905;DHT22;28550;51.228;4.528;2023-06-04T09:25:42;29.50;99.90
42905;DHT22;28550;51.228;4.528;2023-06-04T09:28:09;30.20;99.90
42905;DHT22;28550;51.228;4.528;2023-06-04T09:30:51;29.20;99.90
42905;DHT22;28550;51.228;4.528;2023-06-04T09:33:16;29.50;99.90
42905;DHT22;28550;51.228;4.528;2023-06-04T09:35:53;29.70;99.90
42905;DHT22;28550;51.228;4.528;2023-06-04T09:38:19;30.80;99.90
42905;DHT22;28550;51.228;4.528;2023-06-04T09:40:54;30.30;99.90
42905;DHT22;28550;51.228;4.528;2023-06-04T09:43:23;30.20;99.90
42905;DHT22;28550;51.228;4.528;2023-06-04T09:45:51;30.00;99.90
42905;DHT22;28550;51.228;4.528;2023-06-04T09:48:22;29.80;99.90
42905;DHT22;28550;51.228;4.528;2023-06-04T09:50:48;30.10;99.90
42905;DHT22;28550;51.228;4.528;2023-06-04T09:53:15;30.00;99.90
42905;DHT22;28550;51.228;4.528;2023-06-04T09:55:42;30.40;99.90
42905;DHT22;28550;51.228;4.528;2023-06-04T09:58:10;30.10;99.90
42905;DHT22;28550;51.228;4.528;2023-06-04T10:00:38;30.50;99.90
42905;DHT22;28550;51.228;4.528;2023-06-04T10:03:05;31.30;99.90
42905;DHT22;28550;51.228;4.528;2023-06-04T10:05:33;30.70;99.90
42905;DHT22;28550;51.228;4.528;2023-06-04T10:08:13;30.70;99.90
42905;DHT22;28550;51.228;4.528;2023-06-04T10:10:48;30.20;99.90
42905;DHT22;28550;51.228;4.528;2023-06-04T10:13:18;30.50;99.90
42905;DHT22;28550;51.228;4.528;2023-06-04T10:16:02;30.40;99.90
42905;DHT22;28550;51.228;4.528;2023-06-04T10:18:28;31.60;99.90
42905;DHT22;28550;51.228;4.528;2023-06-04T10:21:06;31.90;99.90
42905;DHT22;28550;51.228;4.528;2023-06-04T10:23:34;31.90;99.90
42905;DHT22;28550;51.228;4.528;2023-06-04T10:26:00;32.60;99.90
42905;DHT22;28550;51.228;4.528;2023-06-04T10:28:26;32.10;99.90
42905;DHT22;28550;51.228;4.528;2023-06-04T10:30:53;31.90;99.90
42905;DHT22;28550;51.228;4.528;2023-06-04T10:33:20;31.30;99.90
42905;DHT22;28550;51.228;4.528;2023-06-04T10:35:50;32.10;99.90
42905;DHT22;28550;51.228;4.528;2023-06-04T10:38:20;32.10;99.90
42905;DHT22;28550;51.228;4.528;2023-06-04T10:40:47;32.00;99.90
42905;DHT22;28550;51.228;4.528;2023-06-04T10:43:15;32.30;99.40
42905;DHT22;28550;51.228;4.528;2023-06-04T10:46:18;33.00;99.90
42905;DHT22;28550;51.228;4.528;2023-06-04T10:48:51;33.00;99.90
42905;DHT22;28550;51.228;4.528;2023-06-04T10:51:32;32.90;99.90
42905;DHT22;28550;51.228;4.528;2023-06-04T10:54:05;33.80;99.90
42905;DHT22;28550;51.228;4.528;2023-06-04T10:56:35;32.80;98.10
42905;DHT22;28550;51.228;4.528;2023-06-04T10:59:15;33.70;99.90
42905;DHT22;28550;51.228;4.528;2023-06-04T11:01:43;33.50;99.90
42905;DHT22;28550;51.228;4.528;2023-06-04T11:04:27;33.10;99.90
42905;DHT22;28550;51.228;4.528;2023-06-04T11:07:07;33.50;91.40
42905;DHT22;28550;51.228;4.528;2023-06-04T11:09:48;32.00;99.90
42905;DHT22;28550;51.228;4.528;2023-06-04T11:12:14;32.90;99.90
42905;DHT22;28550;51.228;4.528;2023-06-04T11:14:40;33.00;94.20
42905;DHT22;28550;51.228;4.528;2023-06-04T11:17:20;32.70;94.30
42905;DHT22;28550;51.228;4.528;2023-06-04T11:19:52;32.20;99.60
42905;DHT22;28550;51.228;4.528;2023-06-04T11:22:21;32.80;99.90
42905;DHT22;28550;51.228;4.528;2023-06-04T11:24:59;32.70;99.90
42905;DHT22;28550;51.228;4.528;2023-06-04T11:27:32;32.40;97.90
42905;DHT22;28550;51.228;4.528;2023-06-04T11:29:58;33.00;99.90
42905;DHT22;28550;51.228;4.528;2023-06-04T11:32:31;32.50;91.60
42905;DHT22;28550;51.228;4.528;2023-06-04T11:35:07;33.30;88.80
42905;DHT22;28550;51.228;4.528;2023-06-04T11:37:37;33.40;97.40
42905;DHT22;28550;51.228;4.528;2023-06-04T11:40:18;34.40;93.70
42905;DHT22;28550;51.228;4.528;2023-06-04T11:42:46;34.00;99.70
42905;DHT22;28550;51.228;4.528;2023-06-04T11:45:16;34.30;99.90
42905;DHT22;28550;51.228;4.528;2023-06-04T11:48:02;35.00;99.90
42905;DHT22;28550;51.228;4.528;2023-06-04T11:50:29;34.50;99.90
42905;DHT22;28550;51.228;4.528;2023-06-04T11:52:55;35.00;90.20
42905;DHT22;28550;51.228;4.528;2023-06-04T11:55:21;35.50;90.90
42905;DHT22;28550;51.228;4.528;2023-06-04T11:57:50;36.40;80.90
42905;DHT22;28550;51.228;4.528;2023-06-04T12:00:26;36.60;78.90
42905;DHT22;28550;51.228;4.528;2023-06-04T12:02:55;37.10;96.30
42905;DHT22;28550;51.228;4.528;2023-06-04T12:05:53;35.50;93.50
42905;DHT22;28550;51.228;4.528;2023-06-04T12:08:18;34.20;64.30
42905;DHT22;28550;51.228;4.528;2023-06-04T12:10:53;34.90;62.50
42905;DHT22;28550;51.228;4.528;2023-06-04T12:13:19;33.80;98.00
42905;DHT22;28550;51.228;4.528;2023-06-04T12:15:52;34.10;68.00
42905;DHT22;28550;51.228;4.528;2023-06-04T12:18:33;34.80;94.50
42905;DHT22;28550;51.228;4.528;2023-06-04T12:21:01;35.10;78.10
42905;DHT22;28550;51.228;4.528;2023-06-04T12:23:33;35.50;85.80
42905;DHT22;28550;51.228;4.528;2023-06-04T12:25:58;34.30;83.80
42905;DHT22;28550;51.228;4.528;2023-06-04T12:28:34;34.70;75.00
42905;DHT22;28550;51.228;4.528;2023-06-04T12:31:01;35.10;90.10
42905;DHT22;28550;51.228;4.528;2023-06-04T12:33:27;34.90;72.40
42905;DHT22;28550;51.228;4.528;2023-06-04T12:36:16;34.10;79.00
42905;DHT22;28550;51.228;4.528;2023-06-04T12:38:45;34.60;96.30
42905;DHT22;28550;51.228;4.528;2023-06-04T12:41:13;35.40;78.70
42905;DHT22;28550;51.228;4.528;2023-06-04T12:43:39;35.40;81.70
42905;DHT22;28550;51.228;4.528;2023-06-04T12:46:05;34.60;74.60
42905;DHT22;28550;51.228;4.528;2023-06-04T12:48:37;34.30;89.30
42905;DHT22;28550;51.228;4.528;2023-06-04T12:51:02;34.70;83.10
42905;DHT22;28550;51.228;4.528;2023-06-04T12:53:28;33.70;68.70
42905;DHT22;28550;51.228;4.528;2023-06-04T12:55:54;33.80;58.60
42905;DHT22;28550;51.228;4.528;2023-06-04T12:58:20;34.60;72.20
42905;DHT22;28550;51.228;4.528;2023-06-04T13:00:48;35.50;84.70
42905;DHT22;28550;51.228;4.528;2023-06-04T13:03:26;36.00;71.40
42905;DHT22;28550;51.228;4.528;2023-06-04T13:05:53;35.10;73.50
42905;DHT22;28550;51.228;4.528;2023-06-04T13:08:22;36.10;93.60
42905;DHT22;28550;51.228;4.528;2023-06-04T13:10:56;35.10;78.30
42905;DHT22;28550;51.228;4.528;2023-06-04T13:13:21;33.90;94.10
42905;DHT22;28550;51.228;4.528;2023-06-04T13:15:47;33.80;85.20
42905;DHT22;28550;51.228;4.528;2023-06-04T13:18:17;34.00;89.30
42905;DHT22;28550;51.228;4.528;2023-06-04T13:20:43;33.50;67.90
42905;DHT22;28550;51.228;4.528;2023-06-04T13:23:08;33.10;64.10
42905;DHT22;28550;51.228;4.528;2023-06-04T13:25:35;33.80;77.60
42905;DHT22;28550;51.228;4.528;2023-06-04T13:28:02;34.40;86.40
42905;DHT22;28550;51.228;4.528;2023-06-04T13:30:38;35.00;56.80
42905;DHT22;28550;51.228;4.528;2023-06-04T13:33:04;35.70;76.20
42905;DHT22;28550;51.228;4.528;2023-06-04T13:35:30;34.10;80.60
42905;DHT22;28550;51.228;4.528;2023-06-04T13:38:13;33.60;91.80
42905;DHT22;28550;51.228;4.528;2023-06-04T13:40:42;34.90;55.30
42905;DHT22;28550;51.228;4.528;2023-06-04T13:43:11;34.50;65.80
42905;DHT22;28550;51.228;4.528;2023-06-04T13:48:36;35.50;91.80
42905;DHT22;28550;51.228;4.528;2023-06-04T13:51:10;34.80;76.50
42905;DHT22;28550;51.228;4.528;2023-06-04T13:53:37;34.70;68.20
42905;DHT22;28550;51.228;4.528;2023-06-04T13:56:09;34.50;66.20
42905;DHT22;28550;51.228;4.528;2023-06-04T13:58:35;33.90;76.70
42905;DHT22;28550;51.228;4.528;2023-06-04T14:01:00;34.30;63.90
42905;DHT22;28550;51.228;4.528;2023-06-04T14:03:32;35.20;72.10
42905;DHT22;28550;51.228;4.528;2023-06-04T14:05:59;34.40;60.10
42905;DHT22;28550;51.228;4.528;2023-06-04T14:08:26;34.50;59.80
42905;DHT22;28550;51.228;4.528;2023-06-04T14:10:56;34.80;73.20
42905;DHT22;28550;51.228;4.528;2023-06-04T14:13:38;35.20;76.40
42905;DHT22;28550;51.228;4.528;2023-06-04T14:16:04;35.70;69.00
42905;DHT22;28550;51.228;4.528;2023-06-04T14:18:33;35.10;86.80
42905;DHT22;28550;51.228;4.528;2023-06-04T14:20:58;33.50;90.10
42905;DHT22;28550;51.228;4.528;2023-06-04T14:23:30;33.10;75.90
42905;DHT22;28550;51.228;4.528;2023-06-04T14:25:59;33.70;91.10
42905;DHT22;28550;51.228;4.528;2023-06-04T14:28:28;33.50;67.00
42905;DHT22;28550;51.228;4.528;2023-06-04T14:30:53;34.50;91.80
42905;DHT22;28550;51.228;4.528;2023-06-04T14:33:19;34.90;76.20
42905;DHT22;28550;51.228;4.528;2023-06-04T14:35:46;34.80;63.70
42905;DHT22;28550;51.228;4.528;2023-06-04T14:38:13;34.70;90.70
42905;DHT22;28550;51.228;4.528;2023-06-04T14:40:39;34.50;88.80
42905;DHT22;28550;51.228;4.528;2023-06-04T14:43:07;33.30;85.00
42905;DHT22;28550;51.228;4.528;2023-06-04T14:45:33;32.70;83.80
42905;DHT22;28550;51.228;4.528;2023-06-04T14:47:58;32.80;76.30
42905;DHT22;28550;51.228;4.528;2023-06-04T14:50:24;32.80;79.20
42905;DHT22;28550;51.228;4.528;2023-06-04T14:52:53;33.10;82.90
42905;DHT22;28550;51.228;4.528;2023-06-04T14:55:24;33.60;52.30
42905;DHT22;28550;51.228;4.528;2023-06-04T14:57:50;34.10;91.40
42905;DHT22;28550;51.228;4.528;2023-06-04T15:00:16;34.40;73.10
42905;DHT22;28550;51.228;4.528;2023-06-04T15:02:45;34.00;64.90
42905;DHT22;28550;51.228;4.528;2023-06-04T15:05:11;33.30;50.80
42905;DHT22;28550;51.228;4.528;2023-06-04T15:07:36;32.10;79.70
42905;DHT22;28550;51.228;4.528;2023-06-04T15:10:05;32.50;79.40
42905;DHT22;28550;51.228;4.528;2023-06-04T15:13:05;32.30;89.50
42905;DHT22;28550;51.228;4.528;2023-06-04T15:15:31;32.30;93.30
42905;DHT22;28550;51.228;4.528;2023-06-04T15:17:59;32.60;64.30
42905;DHT22;28550;51.228;4.528;2023-06-04T15:20:25;32.40;58.00
42905;DHT22;28550;51.228;4.528;2023-06-04T15:22:55;31.70;88.50
42905;DHT22;28550;51.228;4.528;2023-06-04T15:25:21;31.30;74.30
42905;DHT22;28550;51.228;4.528;2023-06-04T15:27:47;31.40;61.10
42905;DHT22;28550;51.228;4.528;2023-06-04T15:30:13;31.80;81.10
42905;DHT22;28550;51.228;4.528;2023-06-04T15:32:38;32.60;78.30
42905;DHT22;28550;51.228;4.528;2023-06-04T15:35:04;32.50;64.20
42905;DHT22;28550;51.228;4.528;2023-06-04T15:37:30;33.20;66.40
42905;DHT22;28550;51.228;4.528;2023-06-04T15:39:56;33.60;76.90
42905;DHT22;28550;51.228;4.528;2023-06-04T15:42:28;33.50;71.10
42905;DHT22;28550;51.228;4.528;2023-06-04T15:45:03;32.70;49.00
42905;DHT22;28550;51.228;4.528;2023-06-04T15:47:32;32.20;63.40
42905;DHT22;28550;51.228;4.528;2023-06-04T15:50:05;32.40;84.50
42905;DHT22;28550;51.228;4.528;2023-06-04T15:52:39;31.70;93.00
42905;DHT22;28550;51.228;4.528;2023-06-04T15:55:14;32.00;56.80
42905;DHT22;28550;51.228;4.528;2023-06-04T15:57:50;32.40;78.50
42905;DHT22;28550;51.228;4.528;2023-06-04T16:00:21;31.90;78.10
42905;DHT22;28550;51.228;4.528;2023-06-04T16:02:48;31.60;67.40
42905;DHT22;28550;51.228;4.528;2023-06-04T16:05:16;31.00;87.20
42905;DHT22;28550;51.228;4.528;2023-06-04T16:07:43;30.60;87.30